createdAt,value
2022-12-20T00:01:35.162Z,99.90
2022-12-20T00:04:02.564Z,99.90
2022-12-20T00:06:29.417Z,99.90
2022-12-20T00:08:56.590Z,99.90
2022-12-20T00:11:21.075Z,99.90
2022-12-20T00:13:47.889Z,99.90
2022-12-20T00:16:17.816Z,99.90
2022-12-20T00:18:43.232Z,99.90
2022-12-20T00:21:09.211Z,99.90
2022-12-20T00:23:36.522Z,99.90
2022-12-20T00:26:06.016Z,99.90
2022-12-20T00:28:30.647Z,99.90
2022-12-20T00:30:55.774Z,99.90
2022-12-20T00:33:20.363Z,99.90
2022-12-20T00:35:44.723Z,99.90
2022-12-20T00:38:09.367Z,99.90
2022-12-20T00:40:35.661Z,99.90
2022-12-20T00:43:00.184Z,99.90
2022-12-20T00:45:24.618Z,99.90
2022-12-20T00:47:49.193Z,99.90
2022-12-20T00:50:13.787Z,99.90
2022-12-20T00:52:38.332Z,99.90
2022-12-20T00:55:02.809Z,99.90
2022-12-20T00:57:29.032Z,99.90
2022-12-20T00:59:53.566Z,99.90
2022-12-20T01:02:18.831Z,99.90
2022-12-20T01:04:45.202Z,99.90
2022-12-20T01:07:09.947Z,99.90
2022-12-20T01:09:34.451Z,99.90
2022-12-20T01:11:59.063Z,99.90
2022-12-20T01:14:25.086Z,99.90
2022-12-20T01:16:50.026Z,99.90
2022-12-20T01:19:16.812Z,99.90
2022-12-20T01:21:44.955Z,99.90
2022-12-20T01:24:11.173Z,99.90
2022-12-20T01:26:36.323Z,99.90
2022-12-20T01:29:01.755Z,99.90
2022-12-20T01:31:33.564Z,99.90
2022-12-20T01:33:59.247Z,99.90
2022-12-20T01:36:26.486Z,99.90
2022-12-20T01:38:51.180Z,99.90
2022-12-20T01:41:17.446Z,99.90
2022-12-20T01:43:50.836Z,99.90
2022-12-20T01:46:15.688Z,99.90
2022-12-20T01:48:44.027Z,99.90
2022-12-20T01:51:08.942Z,99.90
2022-12-20T01:53:33.851Z,99.90
2022-12-20T01:56:02.031Z,99.90
2022-12-20T01:58:26.989Z,99.90
2022-12-20T02:00:51.858Z,99.90
2022-12-20T02:03:18.088Z,99.90
2022-12-20T02:05:47.138Z,99.90
2022-12-20T02:08:14.790Z,99.90
2022-12-20T02:10:52.865Z,99.90
2022-12-20T02:13:36.901Z,99.90
2022-12-20T02:16:01.624Z,99.90
2022-12-20T02:18:31.014Z,99.90
2022-12-20T02:21:21.347Z,99.90
2022-12-20T02:24:28.790Z,99.90
2022-12-20T02:27:30.029Z,99.90
2022-12-20T02:30:04.668Z,99.90
2022-12-20T02:32:36.556Z,99.90
2022-12-20T02:35:01.752Z,99.90
2022-12-20T02:37:26.383Z,99.90
2022-12-20T02:39:51.469Z,99.90
2022-12-20T02:42:18.548Z,99.90
2022-12-20T02:45:03.336Z,99.90
2022-12-20T02:47:35.456Z,99.90
2022-12-20T02:50:00.073Z,99.90
2022-12-20T02:52:31.264Z,99.90
2022-12-20T02:54:57.011Z,99.90
2022-12-20T02:57:27.623Z,99.90
2022-12-20T02:59:59.519Z,99.90
2022-12-20T03:02:28.714Z,99.90
2022-12-20T03:04:55.649Z,99.90
2022-12-20T03:07:21.363Z,99.90
2022-12-20T03:09:46.999Z,99.90
2022-12-20T03:12:14.734Z,99.90
2022-12-20T03:14:39.351Z,99.90
2022-12-20T03:17:06.126Z,99.90
2022-12-20T03:19:32.805Z,99.90
2022-12-20T03:21:57.708Z,99.90
2022-12-20T03:24:22.269Z,99.90
2022-12-20T03:26:48.107Z,99.90
2022-12-20T03:29:15.486Z,99.90
2022-12-20T03:31:40.403Z,99.90
2022-12-20T03:34:05.843Z,99.90
2022-12-20T03:36:34.104Z,99.90
2022-12-20T03:39:01.821Z,99.90
2022-12-20T03:41:30.398Z,99.90
2022-12-20T03:43:54.946Z,99.90
2022-12-20T03:46:21.161Z,99.90
2022-12-20T03:48:45.778Z,99.90
2022-12-20T03:51:10.578Z,99.90
2022-12-20T03:53:37.034Z,99.90
2022-12-20T03:56:01.622Z,99.90
2022-12-20T03:58:26.337Z,99.90
2022-12-20T04:00:51.645Z,99.90
2022-12-20T04:03:35.485Z,99.90
2022-12-20T04:06:00.144Z,99.90
2022-12-20T04:08:25.406Z,99.90
2022-12-20T04:11:05.427Z,99.90
2022-12-20T04:13:32.731Z,99.90
2022-12-20T04:16:00.658Z,99.90
2022-12-20T04:18:29.292Z,99.90
2022-12-20T04:20:55.438Z,99.90
2022-12-20T04:23:26.913Z,99.90
2022-12-20T04:25:52.940Z,99.90
2022-12-20T04:28:17.443Z,99.90
2022-12-20T04:30:42.876Z,99.90
2022-12-20T04:33:08.019Z,99.90
2022-12-20T04:35:32.976Z,99.90
2022-12-20T04:37:58.507Z,99.90
2022-12-20T04:40:23.103Z,99.90
2022-12-20T04:42:53.464Z,99.90
2022-12-20T04:45:20.374Z,99.90
2022-12-20T04:47:45.981Z,99.90
2022-12-20T04:50:13.653Z,99.90
2022-12-20T04:52:58.223Z,99.90
2022-12-20T04:55:23.515Z,99.90
2022-12-20T04:57:48.464Z,99.90
2022-12-20T05:00:17.358Z,99.90
2022-12-20T05:02:47.772Z,99.90
2022-12-20T05:05:16.712Z,99.90
2022-12-20T05:07:47.259Z,99.90
2022-12-20T05:10:12.770Z,99.90
2022-12-20T05:12:37.755Z,99.90
2022-12-20T05:15:02.909Z,99.90
2022-12-20T05:17:29.129Z,99.90
2022-12-20T05:19:53.908Z,99.90
2022-12-20T05:22:37.034Z,99.90
2022-12-20T05:25:37.180Z,99.90
2022-12-20T05:28:05.225Z,99.90
2022-12-20T05:30:33.104Z,99.90
2022-12-20T05:33:00.261Z,99.90
2022-12-20T05:35:25.377Z,99.90
2022-12-20T05:37:56.350Z,99.90
2022-12-20T05:40:20.858Z,99.90
2022-12-20T05:42:45.879Z,99.90
2022-12-20T05:45:12.439Z,99.90
2022-12-20T05:47:51.200Z,99.90
2022-12-20T05:50:19.299Z,99.90
2022-12-20T05:53:07.446Z,99.90
2022-12-20T05:55:36.925Z,99.90
2022-12-20T05:58:02.288Z,99.90
2022-12-20T06:00:47.518Z,99.90
2022-12-20T06:03:15.353Z,99.90
2022-12-20T06:05:43.067Z,99.90
2022-12-20T06:08:11.389Z,99.90
2022-12-20T06:10:36.463Z,99.90
2022-12-20T06:13:01.671Z,99.90
2022-12-20T06:15:27.185Z,99.90
2022-12-20T06:17:51.864Z,99.90
2022-12-20T06:20:16.973Z,99.90
2022-12-20T06:22:46.633Z,99.90
2022-12-20T06:25:15.239Z,99.90
2022-12-20T06:27:40.047Z,99.90
2022-12-20T06:30:10.787Z,99.90
2022-12-20T06:32:55.679Z,99.90
2022-12-20T06:35:20.514Z,99.90
2022-12-20T06:37:47.873Z,99.90
2022-12-20T06:40:14.415Z,99.90
2022-12-20T06:42:39.200Z,99.90
2022-12-20T06:45:05.398Z,99.90
2022-12-20T06:47:30.576Z,99.90
2022-12-20T06:49:56.108Z,99.70
2022-12-20T06:52:21.129Z,99.90
2022-12-20T06:54:50.184Z,99.90
2022-12-20T06:57:15.083Z,99.50
2022-12-20T06:59:41.968Z,99.90
2022-12-20T07:02:08.167Z,98.70
2022-12-20T07:04:33.881Z,99.20
2022-12-20T07:06:58.469Z,98.00
2022-12-20T07:09:23.170Z,97.30
2022-12-20T07:11:50.779Z,97.50
2022-12-20T07:14:16.560Z,97.80
2022-12-20T07:16:43.979Z,98.20
2022-12-20T07:19:08.627Z,98.90
2022-12-20T07:21:33.065Z,98.60
2022-12-20T07:23:57.805Z,97.70
2022-12-20T07:26:22.160Z,96.50
2022-12-20T07:28:48.510Z,96.90
2022-12-20T07:31:12.918Z,96.50
2022-12-20T07:33:38.922Z,96.70
2022-12-20T07:36:03.708Z,95.70
2022-12-20T07:38:28.691Z,96.30
2022-12-20T07:40:53.386Z,95.60
2022-12-20T07:43:17.887Z,95.30
2022-12-20T07:45:43.958Z,94.50
2022-12-20T07:48:13.734Z,94.60
2022-12-20T07:50:40.089Z,94.60
2022-12-20T07:53:07.609Z,93.90
2022-12-20T07:55:32.548Z,93.60
2022-12-20T07:58:03.043Z,94.50
2022-12-20T08:00:27.989Z,93.50
2022-12-20T08:03:01.112Z,93.50
2022-12-20T08:05:26.426Z,93.60
2022-12-20T08:07:56.797Z,94.40
2022-12-20T08:10:23.724Z,93.80
2022-12-20T08:12:49.982Z,93.90
2022-12-20T08:15:14.592Z,94.40
2022-12-20T08:17:39.238Z,93.80
2022-12-20T08:20:06.928Z,97.90
2022-12-20T08:22:31.369Z,92.00
2022-12-20T08:24:55.999Z,92.40
2022-12-20T08:27:20.293Z,93.10
2022-12-20T08:29:44.901Z,92.80
2022-12-20T08:32:09.331Z,93.30
2022-12-20T08:34:33.806Z,92.80
2022-12-20T08:36:59.527Z,92.10
2022-12-20T08:39:23.955Z,92.30
2022-12-20T08:41:48.403Z,92.90
2022-12-20T08:44:12.978Z,97.30
2022-12-20T08:46:38.007Z,94.00
2022-12-20T08:49:03.163Z,92.50
2022-12-20T08:51:27.581Z,92.50
2022-12-20T08:53:53.889Z,92.30
2022-12-20T08:56:20.026Z,92.20
2022-12-20T08:58:45.631Z,92.50
2022-12-20T09:01:12.495Z,93.20
2022-12-20T09:03:37.949Z,93.60
2022-12-20T09:06:02.711Z,93.10
2022-12-20T09:08:27.912Z,93.90
2022-12-20T09:10:54.325Z,93.20
2022-12-20T09:13:19.200Z,93.10
2022-12-20T09:15:45.558Z,92.20
2022-12-20T09:18:10.437Z,92.80
2022-12-20T09:20:35.248Z,92.50
2022-12-20T09:23:00.174Z,92.50
2022-12-20T09:25:25.442Z,93.20
2022-12-20T09:27:51.333Z,93.10
2022-12-20T09:30:16.379Z,93.80
2022-12-20T09:32:40.752Z,92.70
2022-12-20T09:35:05.712Z,93.30
2022-12-20T09:37:32.340Z,93.20
2022-12-20T09:39:59.140Z,93.30
2022-12-20T09:42:27.236Z,93.20
2022-12-20T09:44:54.873Z,93.70
2022-12-20T09:47:21.944Z,93.50
2022-12-20T09:49:53.506Z,93.50
2022-12-20T09:52:35.819Z,93.10
2022-12-20T09:55:12.228Z,93.50
2022-12-20T09:57:51.272Z,93.60
2022-12-20T10:00:20.799Z,93.00
2022-12-20T10:03:04.243Z,93.50
2022-12-20T10:05:41.820Z,93.00
2022-12-20T10:08:12.892Z,92.70
2022-12-20T10:10:52.723Z,92.40
2022-12-20T10:13:34.764Z,92.30
2022-12-20T10:16:19.457Z,92.50
2022-12-20T10:18:58.393Z,92.50
2022-12-20T10:21:32.215Z,92.20
2022-12-20T10:24:03.438Z,91.90
2022-12-20T10:26:28.806Z,91.40
2022-12-20T10:28:54.612Z,93.10
2022-12-20T10:31:21.065Z,92.90
2022-12-20T10:33:46.993Z,92.30
2022-12-20T10:36:24.337Z,92.10
2022-12-20T10:38:50.811Z,92.40
2022-12-20T10:41:21.961Z,92.30
2022-12-20T10:43:49.841Z,92.10
2022-12-20T10:46:16.722Z,92.40
2022-12-20T10:48:44.551Z,92.60
2022-12-20T10:51:17.336Z,92.90
2022-12-20T10:53:56.666Z,92.90
2022-12-20T10:56:23.695Z,92.50
2022-12-20T10:58:58.268Z,93.00
2022-12-20T11:01:24.774Z,93.00
2022-12-20T11:03:56.301Z,93.00
2022-12-20T11:06:22.485Z,93.00
2022-12-20T11:08:53.851Z,92.90
2022-12-20T11:11:28.697Z,93.10
2022-12-20T11:13:54.307Z,93.40
2022-12-20T11:16:35.731Z,94.50
2022-12-20T11:19:27.891Z,93.90
2022-12-20T11:22:02.818Z,93.60
2022-12-20T11:24:34.625Z,93.20
2022-12-20T11:27:24.949Z,93.10
2022-12-20T11:30:06.993Z,93.00
2022-12-20T11:32:50.873Z,93.90
2022-12-20T11:35:22.847Z,93.60
2022-12-20T11:37:57.397Z,94.40
2022-12-20T11:40:31.660Z,93.20
2022-12-20T11:43:21.735Z,93.60
2022-12-20T11:46:02.128Z,93.60
2022-12-20T11:48:53.045Z,93.70
2022-12-20T11:51:27.027Z,93.70
2022-12-20T11:53:56.601Z,93.40
2022-12-20T11:56:26.062Z,93.90
2022-12-20T11:58:54.604Z,94.20
2022-12-20T12:01:22.372Z,94.20
2022-12-20T12:04:00.492Z,93.90
2022-12-20T12:06:30.126Z,93.80
2022-12-20T12:09:01.289Z,94.10
2022-12-20T12:14:35.017Z,95.20
2022-12-20T12:17:06.778Z,94.90
2022-12-20T12:19:32.927Z,94.80
2022-12-20T12:22:07.265Z,95.60
2022-12-20T12:24:39.247Z,95.30
2022-12-20T12:27:04.036Z,95.00
2022-12-20T12:29:31.136Z,95.40
2022-12-20T12:31:59.636Z,95.20
2022-12-20T12:34:37.803Z,95.20
2022-12-20T12:37:24.868Z,95.60
2022-12-20T12:40:14.055Z,95.70
2022-12-20T12:43:09.050Z,95.00
2022-12-20T12:45:37.730Z,95.50
2022-12-20T12:48:07.761Z,95.20
2022-12-20T12:50:36.827Z,95.70
2022-12-20T12:53:09.097Z,95.30
2022-12-20T12:55:38.890Z,95.40
2022-12-20T12:58:15.537Z,95.90
2022-12-20T13:00:52.307Z,95.60
2022-12-20T13:03:18.264Z,95.60
2022-12-20T13:05:42.667Z,95.50
2022-12-20T13:08:17.831Z,95.30
2022-12-20T13:11:00.965Z,95.20
2022-12-20T13:13:25.891Z,95.20
2022-12-20T13:16:07.704Z,95.30
2022-12-20T13:18:32.698Z,96.10
2022-12-20T13:21:37.032Z,95.60
2022-12-20T13:24:38.173Z,95.70
2022-12-20T13:27:15.406Z,95.70
2022-12-20T13:29:54.069Z,96.10
2022-12-20T13:32:51.846Z,96.20
2022-12-20T13:35:31.760Z,96.20
2022-12-20T13:37:58.048Z,96.50
2022-12-20T13:40:33.221Z,96.50
2022-12-20T13:43:03.630Z,96.90
2022-12-20T13:45:29.785Z,96.80
2022-12-20T13:47:57.416Z,97.00
2022-12-20T13:50:40.706Z,97.10
2022-12-20T13:53:06.641Z,97.00
2022-12-20T13:55:37.360Z,97.10
2022-12-20T13:58:11.458Z,96.80
2022-12-20T14:00:36.114Z,97.00
2022-12-20T14:03:03.383Z,96.90
2022-12-20T14:05:33.244Z,97.00
2022-12-20T14:08:01.096Z,97.10
2022-12-20T14:10:27.683Z,97.20
2022-12-20T14:12:54.659Z,97.30
2022-12-20T14:15:29.545Z,97.40
2022-12-20T14:17:54.333Z,97.60
2022-12-20T14:20:27.391Z,97.80
2022-12-20T14:23:04.113Z,98.00
2022-12-20T14:25:33.748Z,98.20
2022-12-20T14:27:59.312Z,98.10
2022-12-20T14:30:32.501Z,98.10
2022-12-20T14:32:57.622Z,98.20
2022-12-20T14:35:22.543Z,99.90
2022-12-20T14:37:55.940Z,98.40
2022-12-20T14:40:22.497Z,98.30
2022-12-20T14:42:47.316Z,97.80
2022-12-20T14:45:20.522Z,97.90
2022-12-20T14:47:55.614Z,97.90
2022-12-20T14:50:22.159Z,98.40
2022-12-20T14:52:47.498Z,98.30
2022-12-20T14:55:18.446Z,98.50
2022-12-20T14:57:47.537Z,98.50
2022-12-20T15:00:23.597Z,99.00
2022-12-20T15:02:59.317Z,99.90
2022-12-20T15:05:46.108Z,98.30
2022-12-20T15:08:15.306Z,98.20
2022-12-20T15:10:42.349Z,98.00
2022-12-20T15:13:09.841Z,98.40
2022-12-20T15:15:34.445Z,98.60
2022-12-20T15:18:01.100Z,98.80
2022-12-20T15:20:25.582Z,99.20
2022-12-20T15:22:51.066Z,99.20
2022-12-20T15:25:17.788Z,99.40
2022-12-20T15:27:42.732Z,99.20
2022-12-20T15:30:13.035Z,99.40
2022-12-20T15:32:40.809Z,99.80
2022-12-20T15:35:17.137Z,99.70
2022-12-20T15:37:43.505Z,99.90
2022-12-20T15:40:09.383Z,99.90
2022-12-20T15:42:36.147Z,99.90
2022-12-20T15:45:01.554Z,99.90
2022-12-20T15:47:27.243Z,99.90
2022-12-20T15:49:51.968Z,99.90
2022-12-20T15:52:22.055Z,99.90
2022-12-20T15:54:47.433Z,99.90
2022-12-20T15:57:14.912Z,99.90
2022-12-20T16:02:26.130Z,99.90
2022-12-20T16:04:50.902Z,99.90
2022-12-20T16:07:15.616Z,99.90
2022-12-20T16:09:41.393Z,99.90
2022-12-20T16:12:06.607Z,99.30
2022-12-20T16:14:32.039Z,99.00
2022-12-20T16:16:56.435Z,99.10
2022-12-20T16:19:20.825Z,99.30
2022-12-20T16:21:48.846Z,99.70
2022-12-20T16:24:15.724Z,99.70
2022-12-20T16:26:44.611Z,99.90
2022-12-20T16:29:09.101Z,99.90
2022-12-20T16:31:35.120Z,99.90
2022-12-20T16:34:03.106Z,99.90
2022-12-20T16:36:27.831Z,99.90
2022-12-20T16:38:53.104Z,99.90
2022-12-20T16:41:18.970Z,99.90
2022-12-20T16:43:45.585Z,99.90
2022-12-20T16:46:13.735Z,99.90
2022-12-20T16:48:38.273Z,99.90
2022-12-20T16:51:33.641Z,99.90
2022-12-20T16:56:45.945Z,99.90
2022-12-20T16:59:22.125Z,99.90
2022-12-20T17:01:48.197Z,99.90
2022-12-20T17:04:16.530Z,99.90
2022-12-20T17:06:41.112Z,99.90
2022-12-20T17:09:05.540Z,99.90
2022-12-20T17:11:32.473Z,99.90
2022-12-20T17:13:57.941Z,99.90
2022-12-20T17:16:25.023Z,99.90
2022-12-20T17:18:51.318Z,99.90
2022-12-20T17:21:24.203Z,99.90
2022-12-20T17:23:49.384Z,99.90
2022-12-20T17:26:15.908Z,99.90
2022-12-20T17:28:40.425Z,99.90
2022-12-20T17:31:08.197Z,99.90
2022-12-20T17:33:34.335Z,99.90
2022-12-20T17:35:59.051Z,99.90
2022-12-20T17:38:23.748Z,99.90
2022-12-20T17:40:48.105Z,99.90
2022-12-20T17:43:14.182Z,99.90
2022-12-20T17:45:38.986Z,99.90
2022-12-20T17:48:03.542Z,99.90
2022-12-20T17:50:29.386Z,99.90
2022-12-20T17:52:54.784Z,99.90
2022-12-20T17:55:21.749Z,99.90
2022-12-20T17:57:46.368Z,99.90
2022-12-20T18:00:21.065Z,99.90
2022-12-20T18:22:44.525Z,99.90
2022-12-20T18:25:09.782Z,99.90
2022-12-20T18:27:38.786Z,99.90
2022-12-20T18:30:03.635Z,99.90
2022-12-20T18:32:28.115Z,99.90
2022-12-20T18:34:52.594Z,99.90
2022-12-20T18:37:17.010Z,99.90
2022-12-20T18:39:42.988Z,99.90
2022-12-20T18:42:07.896Z,99.90
2022-12-20T18:44:35.966Z,99.90
2022-12-20T18:47:02.983Z,99.90
2022-12-20T18:49:27.563Z,99.90
2022-12-20T18:51:52.008Z,99.90
2022-12-20T18:54:16.867Z,99.90
2022-12-20T18:56:42.775Z,99.90
2022-12-20T18:59:12.703Z,99.90
2022-12-20T19:01:37.801Z,99.90
2022-12-20T19:04:03.804Z,99.90
2022-12-20T19:06:28.385Z,99.90
2022-12-20T19:08:53.238Z,99.90
2022-12-20T19:11:19.980Z,99.90
2022-12-20T19:13:46.471Z,99.90
2022-12-20T19:16:14.180Z,99.90
2022-12-20T19:18:38.757Z,99.90
2022-12-20T19:21:07.573Z,99.90
2022-12-20T19:23:32.059Z,99.90
2022-12-20T19:26:05.024Z,99.90
2022-12-20T19:28:30.383Z,99.90
2022-12-20T19:30:56.512Z,99.90
2022-12-20T19:33:21.383Z,99.90
2022-12-20T19:35:55.304Z,99.90
2022-12-20T19:38:20.786Z,99.90
2022-12-20T19:40:52.106Z,99.90
2022-12-20T19:43:17.211Z,99.90
2022-12-20T19:45:41.636Z,99.90
2022-12-20T19:48:07.730Z,99.90
2022-12-20T19:50:32.344Z,99.90
2022-12-20T19:52:56.759Z,99.90
2022-12-20T19:55:21.059Z,99.90
2022-12-20T19:57:45.531Z,99.90
2022-12-20T20:00:11.196Z,99.90
2022-12-20T20:02:39.018Z,99.90
2022-12-20T20:05:09.531Z,99.90
2022-12-20T20:07:39.077Z,99.90
2022-12-20T20:10:03.590Z,99.90
2022-12-20T20:12:28.008Z,99.90
2022-12-20T20:14:53.140Z,99.90
2022-12-20T20:17:17.642Z,99.90
2022-12-20T20:19:42.720Z,99.90
2022-12-20T20:22:10.780Z,99.90
2022-12-20T20:24:36.176Z,99.90
2022-12-20T20:27:00.832Z,99.90
2022-12-20T20:29:25.135Z,99.90
2022-12-20T20:31:49.941Z,99.90
2022-12-20T20:34:14.317Z,99.90
2022-12-20T20:36:38.826Z,99.90
2022-12-20T20:39:04.941Z,99.90
2022-12-20T20:41:29.403Z,99.90
2022-12-20T20:43:53.701Z,99.90
2022-12-20T20:46:18.769Z,99.90
2022-12-20T20:48:44.007Z,99.90
2022-12-20T20:51:09.253Z,99.90
2022-12-20T20:53:34.709Z,99.90
2022-12-20T20:56:00.814Z,99.90
2022-12-20T20:58:25.764Z,99.90
2022-12-20T21:00:52.563Z,99.90
2022-12-20T21:03:17.219Z,99.90
2022-12-20T21:08:26.111Z,99.90
2022-12-20T21:10:50.954Z,99.90
2022-12-20T21:13:18.240Z,99.90
2022-12-20T21:15:43.653Z,99.90
2022-12-20T21:18:08.103Z,99.90
2022-12-20T21:20:32.398Z,99.90
2022-12-20T21:22:58.302Z,99.90
2022-12-20T21:25:22.659Z,99.90
2022-12-20T21:27:48.644Z,99.90
2022-12-20T21:30:14.948Z,99.90
2022-12-20T21:32:39.405Z,99.90
2022-12-20T21:35:03.880Z,99.90
2022-12-20T21:37:30.824Z,99.90
2022-12-20T21:39:55.526Z,99.90
2022-12-20T21:42:19.811Z,99.90
2022-12-20T21:44:44.214Z,99.90
2022-12-20T21:47:10.838Z,99.90
2022-12-20T21:49:35.254Z,99.90
2022-12-20T21:51:59.575Z,99.90
2022-12-20T21:54:24.273Z,99.90
2022-12-20T21:56:48.615Z,99.90
2022-12-20T21:59:13.206Z,99.90
2022-12-20T22:01:37.717Z,99.90
2022-12-20T22:04:05.809Z,99.90
2022-12-20T22:06:31.543Z,99.90
2022-12-20T22:08:57.755Z,99.90
2022-12-20T22:11:22.266Z,99.90
2022-12-20T22:13:47.648Z,99.90
2022-12-20T22:16:14.286Z,99.90
2022-12-20T22:18:39.202Z,99.90
2022-12-20T22:21:05.678Z,99.90
2022-12-20T22:23:30.165Z,99.90
2022-12-20T22:25:54.518Z,99.90
2022-12-20T22:28:19.054Z,99.90
2022-12-20T22:30:44.013Z,99.90
2022-12-20T22:33:08.519Z,99.90
2022-12-20T22:35:32.864Z,99.90
2022-12-20T22:37:58.625Z,99.90
2022-12-20T22:40:23.323Z,99.90
2022-12-20T22:42:47.748Z,99.90
2022-12-20T22:45:12.810Z,99.90
2022-12-20T22:47:37.631Z,99.90
2022-12-20T22:50:02.324Z,99.90
2022-12-20T22:52:27.783Z,99.90
2022-12-20T22:54:53.505Z,99.90
2022-12-20T22:57:18.254Z,99.90
2022-12-20T22:59:42.698Z,99.90
2022-12-20T23:02:07.197Z,99.90
2022-12-20T23:04:31.689Z,99.90
2022-12-20T23:06:56.092Z,99.90
2022-12-20T23:09:20.436Z,99.90
2022-12-20T23:12:03.449Z,99.90
2022-12-20T23:14:45.016Z,99.90
2022-12-20T23:17:11.358Z,99.90
2022-12-20T23:19:49.828Z,99.90
2022-12-20T23:22:31.635Z,99.90
2022-12-20T23:24:55.965Z,99.90
2022-12-20T23:27:21.696Z,99.90
2022-12-20T23:29:46.186Z,99.90
2022-12-20T23:32:10.549Z,99.90
2022-12-20T23:34:35.097Z,99.90
2022-12-20T23:36:59.569Z,99.90
2022-12-20T23:39:23.963Z,99.90
2022-12-20T23:41:48.355Z,99.90
2022-12-20T23:44:14.129Z,99.90
2022-12-20T23:46:38.585Z,99.90
2022-12-20T23:49:02.937Z,99.90
2022-12-20T23:51:27.327Z,99.90
2022-12-20T23:53:53.107Z,99.90
2022-12-20T23:56:19.652Z,99.90
2022-12-20T23:58:44.800Z,99.90
